Terminal Aerodrome Forecast
Issued by NWS

Home | Current Version | Previous Version | Text Only | Print | Product List | Glossary On
Versions: 1 2 3 4 5 6 7 8 9 10 11 12 13 14
000
FTUS42 KGSP 311138
TAFGMU
TAF
KGMU 311138Z 3112/0112 03004KT P6SM SCT110
     FM311800 06006KT P6SM BKN045
     FM312100 06006KT P6SM BKN050 PROB30 3121/0103 4SM -TSRA
      OVC025CB
     FM010300 04003KT P6SM SCT110=

USA.gov is the U.S. government's official web portal to all federal, state and local government web resources and services.